createdAt,value
2022-08-07T00:01:44.730Z,2.20
2022-08-07T00:03:52.864Z,1.80
2022-08-07T00:06:32.903Z,1.83
2022-08-07T00:09:16.341Z,1.90
2022-08-07T00:11:47.916Z,1.80
2022-08-07T00:14:25.407Z,2.00
2022-08-07T00:16:52.663Z,2.20
2022-08-07T00:19:21.605Z,1.90
2022-08-07T00:21:56.008Z,2.13
2022-08-07T00:24:24.241Z,2.22
2022-08-07T00:27:06.375Z,1.70
2022-08-07T00:29:36.856Z,2.00
2022-08-07T00:32:07.212Z,2.10
2022-08-07T00:34:35.558Z,2.00
2022-08-07T00:37:05.030Z,2.25
2022-08-07T00:39:33.502Z,2.42
2022-08-07T00:42:05.346Z,1.95
2022-08-07T00:44:34.113Z,1.80
2022-08-07T00:47:06.463Z,2.00
2022-08-07T00:50:19.404Z,1.90
2022-08-07T00:52:29.688Z,2.20
2022-08-07T00:55:04.984Z,1.70
2022-08-07T00:57:37.269Z,2.20
2022-08-07T01:02:32.521Z,1.73
2022-08-07T01:04:59.989Z,1.85
2022-08-07T01:07:29.698Z,2.15
2022-08-07T01:10:05.692Z,1.90
2022-08-07T01:12:37.933Z,1.90
2022-08-07T01:15:07.431Z,2.03
2022-08-07T01:17:40.052Z,1.90
2022-08-07T01:20:16.593Z,2.08
2022-08-07T01:22:53.978Z,2.00
2022-08-07T01:25:54.836Z,1.75
2022-08-07T01:28:21.932Z,1.80
2022-08-07T01:30:52.492Z,2.00
2022-08-07T01:33:22.493Z,2.50
2022-08-07T01:35:54.450Z,2.08
2022-08-07T01:38:34.658Z,2.10
2022-08-07T01:41:11.289Z,2.10
2022-08-07T01:43:38.675Z,2.30
2022-08-07T01:46:08.109Z,2.20
2022-08-07T01:48:41.056Z,1.85
2022-08-07T01:52:01.103Z,2.05
2022-08-07T01:54:12.784Z,1.90
2022-08-07T01:56:55.281Z,2.10
2022-08-07T01:59:32.823Z,1.92
2022-08-07T02:02:10.363Z,1.85
2022-08-07T02:04:52.642Z,2.35
2022-08-07T02:07:36.114Z,2.20
2022-08-07T02:10:16.204Z,2.03
2022-08-07T02:12:46.352Z,2.08
2022-08-07T02:15:26.417Z,1.83
2022-08-07T02:17:56.494Z,2.45
2022-08-07T02:20:24.722Z,2.70
2022-08-07T02:23:00.126Z,2.38
2022-08-07T02:26:10.674Z,2.10
2022-08-07T02:28:25.473Z,2.05
2022-08-07T02:30:56.353Z,2.50
2022-08-07T02:33:42.253Z,1.90
2022-08-07T02:36:28.870Z,2.30
2022-08-07T02:39:09.508Z,2.17
2022-08-07T02:41:54.505Z,2.30
2022-08-07T02:44:26.822Z,2.50
2022-08-07T02:46:56.175Z,2.00
2022-08-07T02:49:56.228Z,2.30
2022-08-07T02:52:16.090Z,2.33
2022-08-07T02:54:50.476Z,2.47
2022-08-07T02:57:22.157Z,2.70
2022-08-07T02:59:55.243Z,2.15
2022-08-07T03:02:32.512Z,2.70
2022-08-07T03:05:05.057Z,3.67
2022-08-07T03:08:05.433Z,4.07
2022-08-07T03:10:23.404Z,3.83
2022-08-07T03:12:52.845Z,4.15
2022-08-07T03:15:30.352Z,3.88
2022-08-07T03:18:07.704Z,4.03
2022-08-07T03:20:37.088Z,3.28
2022-08-07T03:23:04.437Z,2.58
2022-08-07T03:25:46.265Z,3.40
2022-08-07T03:28:37.353Z,5.15
2022-08-07T03:31:19.381Z,3.30
2022-08-07T03:34:00.549Z,3.22
2022-08-07T03:36:30.668Z,3.00
2022-08-07T03:39:05.533Z,3.25
2022-08-07T03:41:42.504Z,2.92
2022-08-07T03:44:15.825Z,2.60
2022-08-07T03:47:13.692Z,2.55
2022-08-07T03:49:36.563Z,2.30
2022-08-07T03:54:35.525Z,3.25
2022-08-07T03:57:11.707Z,2.83
2022-08-07T04:00:01.654Z,2.75
2022-08-07T04:02:47.469Z,2.40
2022-08-07T04:05:39.439Z,2.40
2022-08-07T04:08:15.994Z,2.33
2022-08-07T04:10:54.163Z,2.47
2022-08-07T04:14:10.478Z,2.35
2022-08-07T04:16:30.994Z,2.80
2022-08-07T04:19:04.280Z,2.90
2022-08-07T04:21:47.998Z,2.78
2022-08-07T04:24:30.742Z,2.70
2022-08-07T04:27:04.651Z,3.45
2022-08-07T04:29:48.936Z,3.22
2022-08-07T04:32:18.604Z,3.03
2022-08-07T04:35:06.326Z,3.33
2022-08-07T04:38:00.940Z,2.95
2022-08-07T04:40:26.648Z,3.08
2022-08-07T04:43:01.218Z,2.95
2022-08-07T04:46:01.163Z,2.55
2022-08-07T04:49:01.465Z,2.45
2022-08-07T04:51:40.516Z,2.90
2022-08-07T04:54:42.398Z,2.45
2022-08-07T04:58:16.966Z,3.40
2022-08-07T05:00:42.985Z,3.03
2022-08-07T05:03:38.767Z,3.17
2022-08-07T05:06:20.362Z,3.55
2022-08-07T05:09:04.521Z,3.20
2022-08-07T05:11:58.849Z,3.22
2022-08-07T05:14:53.190Z,2.90
2022-08-07T05:17:50.796Z,2.65
2022-08-07T05:20:17.927Z,3.15
2022-08-07T05:22:47.533Z,3.08
2022-08-07T05:25:26.104Z,3.10
2022-08-07T05:28:20.571Z,3.00
2022-08-07T05:30:53.352Z,3.40
2022-08-07T05:33:21.554Z,4.05
2022-08-07T05:35:53.347Z,4.05
2022-08-07T05:38:58.212Z,3.33
2022-08-07T05:41:15.887Z,3.35
2022-08-07T05:44:01.482Z,3.30
2022-08-07T05:46:37.520Z,3.63
2022-08-07T05:49:12.632Z,2.97
2022-08-07T05:51:46.471Z,4.07
2022-08-07T05:57:03.930Z,4.32
2022-08-07T05:59:38.900Z,4.28
2022-08-07T06:02:29.096Z,3.88
2022-08-07T06:05:15.906Z,4.18
2022-08-07T06:08:13.854Z,3.88
2022-08-07T06:10:33.105Z,3.85
2022-08-07T06:13:02.216Z,4.18
2022-08-07T06:15:39.030Z,4.15
2022-08-07T06:18:11.196Z,4.38
2022-08-07T06:20:49.541Z,4.20
2022-08-07T06:23:46.254Z,4.10
2022-08-07T06:26:05.720Z,3.90
2022-08-07T06:28:34.103Z,4.20
2022-08-07T06:31:01.206Z,4.57
2022-08-07T06:33:33.066Z,4.20
2022-08-07T06:36:12.002Z,3.70
2022-08-07T06:38:59.178Z,3.75
2022-08-07T06:42:02.235Z,3.60
2022-08-07T06:44:45.955Z,4.07
2022-08-07T06:47:19.305Z,3.70
2022-08-07T06:49:52.501Z,4.00
2022-08-07T06:52:38.051Z,3.78
2022-08-07T06:55:33.879Z,4.35
2022-08-07T06:58:13.820Z,3.63
2022-08-07T07:00:53.529Z,3.97
2022-08-07T07:03:26.413Z,4.05
2022-08-07T07:06:11.037Z,3.67
2022-08-07T07:08:39.767Z,3.78
2022-08-07T07:12:08.937Z,4.20
2022-08-07T07:14:02.712Z,4.72
2022-08-07T07:16:45.062Z,3.85
2022-08-07T07:19:56.309Z,4.53
2022-08-07T07:22:33.933Z,4.32
2022-08-07T07:25:14.030Z,3.75
2022-08-07T07:28:02.033Z,3.30
2022-08-07T07:30:40.012Z,3.20
2022-08-07T07:33:11.526Z,3.03
2022-08-07T07:35:50.638Z,3.40
2022-08-07T07:38:30.567Z,2.92
2022-08-07T07:41:02.908Z,2.92
2022-08-07T07:44:14.000Z,2.75
2022-08-07T07:46:40.125Z,3.15
2022-08-07T07:50:33.338Z,2.40
2022-08-07T07:51:59.908Z,2.72
2022-08-07T07:54:28.068Z,3.28
2022-08-07T07:56:57.294Z,3.08
2022-08-07T07:59:52.548Z,2.97
2022-08-07T08:02:22.324Z,3.58
2022-08-07T08:05:14.162Z,3.08
2022-08-07T08:07:59.817Z,3.63
2022-08-07T08:10:37.820Z,3.80
2022-08-07T08:13:07.274Z,3.40
2022-08-07T08:15:57.931Z,3.72
2022-08-07T08:18:28.633Z,3.05
2022-08-07T08:20:56.871Z,3.47
2022-08-07T08:23:43.453Z,3.05
2022-08-07T08:26:33.490Z,3.10
2022-08-07T08:29:02.818Z,3.70
2022-08-07T08:31:58.810Z,2.70
2022-08-07T08:34:31.853Z,3.28
2022-08-07T08:37:00.024Z,3.25
2022-08-07T08:39:39.372Z,3.53
2022-08-07T08:42:43.135Z,3.00
2022-08-07T08:45:17.841Z,3.40
2022-08-07T08:48:08.567Z,2.95
2022-08-07T08:50:58.299Z,3.05
2022-08-07T08:53:52.416Z,2.75
2022-08-07T08:56:26.115Z,2.53
2022-08-07T08:59:00.072Z,2.78
2022-08-07T09:02:09.403Z,2.15
2022-08-07T09:04:51.812Z,2.70
2022-08-07T09:07:46.280Z,2.75
2022-08-07T09:10:44.385Z,2.30
2022-08-07T09:13:37.153Z,2.33
2022-08-07T09:16:29.856Z,1.90
2022-08-07T09:19:50.950Z,1.95
2022-08-07T09:22:36.765Z,2.08
2022-08-07T09:25:18.299Z,1.77
2022-08-07T09:28:06.043Z,1.60
2022-08-07T09:31:08.453Z,1.90
2022-08-07T09:34:08.293Z,2.22
2022-08-07T09:36:49.562Z,1.98
2022-08-07T09:39:53.834Z,1.95
2022-08-07T09:42:33.564Z,1.88
2022-08-07T09:47:20.029Z,1.98
2022-08-07T09:48:11.835Z,2.05
2022-08-07T09:50:59.398Z,2.10
2022-08-07T09:53:41.227Z,1.90
2022-08-07T09:56:50.991Z,1.70
2022-08-07T09:59:44.748Z,1.70
2022-08-07T10:02:29.718Z,1.50
2022-08-07T10:05:13.927Z,1.70
2022-08-07T10:08:17.182Z,1.80
2022-08-07T10:11:59.724Z,1.75
2022-08-07T10:14:55.527Z,1.95
2022-08-07T10:18:01.474Z,1.70
2022-08-07T10:20:38.314Z,1.70
2022-08-07T10:24:06.621Z,2.30
2022-08-07T10:26:53.755Z,1.65
2022-08-07T10:29:46.053Z,2.08
2022-08-07T10:32:59.837Z,2.00
2022-08-07T10:36:10.922Z,1.90
2022-08-07T10:38:59.109Z,1.80
2022-08-07T10:41:47.392Z,2.00
2022-08-07T10:45:11.733Z,2.17
2022-08-07T10:47:51.604Z,2.20
2022-08-07T10:50:33.916Z,2.10
2022-08-07T10:53:11.031Z,2.10
2022-08-07T10:56:02.179Z,1.55
2022-08-07T10:58:59.616Z,1.95
2022-08-07T11:01:51.563Z,1.80
2022-08-07T11:04:34.808Z,1.60
2022-08-07T11:07:59.366Z,1.80
2022-08-07T11:10:39.752Z,2.00
2022-08-07T11:14:45.607Z,2.03
2022-08-07T11:16:29.794Z,1.92
2022-08-07T11:19:34.499Z,1.55
2022-08-07T11:22:32.389Z,1.73
2022-08-07T11:25:19.950Z,1.90
2022-08-07T11:28:08.918Z,1.80
2022-08-07T11:31:12.937Z,2.03
2022-08-07T11:33:59.450Z,1.70
2022-08-07T11:36:39.286Z,2.17
2022-08-07T11:39:39.719Z,1.90
2022-08-07T11:42:21.948Z,2.15
2022-08-07T11:45:14.481Z,2.03
2022-08-07T11:47:59.602Z,2.28
2022-08-07T11:50:44.745Z,2.10
2022-08-07T11:54:01.031Z,2.05
2022-08-07T11:56:52.190Z,1.75
2022-08-07T12:00:11.473Z,1.65
2022-08-07T12:02:52.369Z,2.00
2022-08-07T12:05:58.405Z,2.13
2022-08-07T12:08:42.593Z,1.77
2022-08-07T12:11:24.320Z,1.67
2022-08-07T12:14:05.051Z,2.15
2022-08-07T12:16:36.689Z,1.88
2022-08-07T12:19:14.626Z,2.20
2022-08-07T12:22:39.592Z,1.80
2022-08-07T12:26:03.214Z,2.30
2022-08-07T12:28:31.024Z,2.10
2022-08-07T12:31:05.292Z,2.40
2022-08-07T12:33:56.418Z,2.28
2022-08-07T12:36:32.808Z,2.08
2022-08-07T12:39:41.182Z,2.10
2022-08-07T12:41:53.619Z,2.08
2022-08-07T12:44:21.638Z,1.88
2022-08-07T12:47:09.593Z,2.10
2022-08-07T12:50:04.367Z,1.80
2022-08-07T12:52:46.325Z,1.70
2022-08-07T12:55:41.288Z,1.95
2022-08-07T12:58:28.113Z,2.00
2022-08-07T13:01:32.464Z,2.50
2022-08-07T13:04:33.998Z,2.10
2022-08-07T13:08:13.987Z,1.92
2022-08-07T13:10:39.317Z,2.08
2022-08-07T13:13:46.906Z,2.00
2022-08-07T13:16:21.968Z,1.90
2022-08-07T13:19:18.224Z,1.73
2022-08-07T13:22:12.698Z,2.00
2022-08-07T13:25:00.498Z,2.10
2022-08-07T13:28:11.142Z,2.00
2022-08-07T13:30:40.480Z,1.80
2022-08-07T13:34:32.937Z,1.83
2022-08-07T13:36:37.886Z,1.50
2022-08-07T13:40:34.184Z,1.83
2022-08-07T13:42:24.914Z,1.80
2022-08-07T13:44:55.312Z,1.80
2022-08-07T13:48:07.982Z,1.90
2022-08-07T13:50:45.283Z,1.98
2022-08-07T13:53:55.208Z,1.60
2022-08-07T13:56:40.941Z,1.90
2022-08-07T13:59:21.784Z,1.55
2022-08-07T14:02:03.528Z,1.52
2022-08-07T14:04:35.691Z,1.42
2022-08-07T14:07:09.622Z,1.60
2022-08-07T14:10:03.101Z,1.70
2022-08-07T14:12:55.191Z,1.30
2022-08-07T14:16:05.288Z,1.45
2022-08-07T14:18:50.026Z,1.27
2022-08-07T14:22:04.161Z,1.30
2022-08-07T14:24:36.665Z,1.42
2022-08-07T14:28:11.842Z,1.30
2022-08-07T14:30:11.257Z,1.50
2022-08-07T14:32:45.834Z,1.50
2022-08-07T14:35:43.312Z,1.00
2022-08-07T14:38:24.777Z,1.20
2022-08-07T14:40:59.346Z,1.25
2022-08-07T14:49:56.196Z,1.35
2022-08-07T14:52:04.479Z,1.50
2022-08-07T14:54:42.244Z,1.40
2022-08-07T14:57:15.052Z,1.50
2022-08-07T15:00:05.128Z,1.88
2022-08-07T15:05:23.615Z,2.20
2022-08-07T15:07:52.322Z,1.50
2022-08-07T15:13:05.806Z,1.23
2022-08-07T15:13:23.268Z,1.25
2022-08-07T15:15:58.045Z,2.17
2022-08-07T15:18:41.815Z,1.92
2022-08-07T15:21:44.320Z,1.75
2022-08-07T15:27:25.953Z,1.58
2022-08-07T15:30:04.386Z,1.63
2022-08-07T15:36:00.541Z,1.90
2022-08-07T15:38:30.746Z,1.70
2022-08-07T15:41:24.187Z,1.83
2022-08-07T15:44:03.733Z,1.80
2022-08-07T15:46:39.364Z,1.55
2022-08-07T15:49:25.501Z,1.63
2022-08-07T15:52:13.938Z,2.03
2022-08-07T15:54:47.651Z,1.88
2022-08-07T15:57:39.615Z,1.70
2022-08-07T16:00:08.815Z,1.80
2022-08-07T16:02:57.409Z,1.65
2022-08-07T16:05:31.029Z,1.55
2022-08-07T16:08:31.124Z,1.63
2022-08-07T16:11:02.687Z,1.80
2022-08-07T16:13:59.994Z,1.90
2022-08-07T16:16:57.202Z,1.70
2022-08-07T16:19:42.566Z,2.22
2022-08-07T16:22:54.393Z,1.77
2022-08-07T16:25:53.976Z,1.80
2022-08-07T16:30:08.643Z,1.90
2022-08-07T16:31:58.255Z,2.10
2022-08-07T16:34:52.173Z,1.73
2022-08-07T16:40:57.277Z,1.90
2022-08-07T16:44:02.624Z,1.98
2022-08-07T16:47:18.681Z,1.90
2022-08-07T16:50:26.691Z,2.30
2022-08-07T16:54:02.102Z,2.50
2022-08-07T16:56:27.653Z,2.95
2022-08-07T16:59:10.961Z,2.08
2022-08-07T17:01:51.346Z,3.83
2022-08-07T17:04:50.819Z,1.90
2022-08-07T17:07:51.472Z,2.38
2022-08-07T17:10:33.784Z,2.00
2022-08-07T17:13:01.042Z,2.60
2022-08-07T17:15:44.675Z,2.10
2022-08-07T17:18:38.784Z,2.00
2022-08-07T17:21:51.634Z,2.22
2022-08-07T17:24:35.816Z,2.30
2022-08-07T17:27:19.924Z,2.40
2022-08-07T17:30:14.633Z,2.70
2022-08-07T17:34:09.066Z,2.38
2022-08-07T17:36:13.538Z,2.40
2022-08-07T17:39:16.953Z,2.10
2022-08-07T17:42:03.583Z,2.03
2022-08-07T17:44:35.110Z,2.15
2022-08-07T17:47:42.474Z,2.22
2022-08-07T17:50:35.190Z,2.15
2022-08-07T17:53:59.620Z,2.53
2022-08-07T17:56:28.523Z,2.28
2022-08-07T17:59:03.359Z,2.22
2022-08-07T18:01:57.608Z,2.20
2022-08-07T18:04:42.276Z,2.25
2022-08-07T18:07:20.942Z,1.90
2022-08-07T18:10:05.853Z,2.30
2022-08-07T18:13:06.648Z,2.90
2022-08-07T18:15:55.876Z,2.55
2022-08-07T18:18:45.131Z,2.50
2022-08-07T18:21:51.875Z,2.60
2022-08-07T18:24:34.463Z,2.65
2022-08-07T18:27:38.819Z,2.42
2022-08-07T18:30:32.357Z,2.67
2022-08-07T18:33:36.129Z,2.40
2022-08-07T18:36:12.723Z,2.50
2022-08-07T18:38:58.987Z,2.70
2022-08-07T18:41:57.366Z,2.83
2022-08-07T18:45:40.308Z,2.40
2022-08-07T18:47:50.594Z,2.28
2022-08-07T18:50:45.612Z,2.55
2022-08-07T18:53:54.338Z,2.25
2022-08-07T18:57:23.206Z,2.42
2022-08-07T19:00:00.570Z,2.40
2022-08-07T19:02:45.326Z,2.70
2022-08-07T19:05:19.667Z,2.92
2022-08-07T19:08:05.208Z,2.50
2022-08-07T19:10:51.533Z,2.75
2022-08-07T19:13:54.841Z,3.33
2022-08-07T19:16:43.764Z,2.90
2022-08-07T19:22:18.735Z,2.85
2022-08-07T19:24:58.897Z,2.50
2022-08-07T19:28:29.951Z,3.13
2022-08-07T19:31:04.684Z,2.85
2022-08-07T19:33:15.515Z,3.22
2022-08-07T19:35:46.751Z,3.17
2022-08-07T19:38:22.635Z,3.33
2022-08-07T19:40:51.875Z,3.20
2022-08-07T19:43:43.475Z,3.00
2022-08-07T19:46:14.712Z,2.95
2022-08-07T19:48:53.968Z,3.00
2022-08-07T19:54:31.668Z,3.13
2022-08-07T19:58:04.472Z,3.28
2022-08-07T20:00:02.629Z,3.30
2022-08-07T20:02:53.395Z,3.50
2022-08-07T20:05:25.277Z,3.40
2022-08-07T20:07:59.743Z,3.33
2022-08-07T20:10:36.999Z,3.78
2022-08-07T20:13:22.643Z,3.42
2022-08-07T20:15:54.040Z,3.88
2022-08-07T20:18:33.788Z,4.07
2022-08-07T20:21:21.363Z,4.15
2022-08-07T20:24:00.880Z,8.02
2022-08-07T20:26:45.029Z,4.50
2022-08-07T20:32:04.742Z,4.40
2022-08-07T20:34:50.106Z,4.20
2022-08-07T20:37:33.823Z,4.65
2022-08-07T20:40:05.332Z,5.00
2022-08-07T20:42:56.616Z,12.82
2022-08-07T20:45:33.356Z,12.80
2022-08-07T20:48:29.555Z,9.77
2022-08-07T20:51:00.211Z,7.97
2022-08-07T20:54:04.543Z,5.63
2022-08-07T20:56:16.493Z,7.70
2022-08-07T20:58:50.412Z,7.07
2022-08-07T21:01:21.664Z,5.38
2022-08-07T21:04:18.752Z,5.63
2022-08-07T21:06:53.221Z,6.15
2022-08-07T21:09:24.560Z,6.28
2022-08-07T21:11:57.489Z,5.07
2022-08-07T21:14:33.617Z,6.03
2022-08-07T21:18:03.738Z,5.40
2022-08-07T21:20:26.472Z,6.10
2022-08-07T21:23:07.334Z,5.60
2022-08-07T21:26:06.064Z,6.47
2022-08-07T21:28:51.865Z,7.38
2022-08-07T21:31:31.479Z,7.85
2022-08-07T21:34:26.747Z,6.72
2022-08-07T21:37:00.653Z,5.65
2022-08-07T21:39:54.785Z,5.25
2022-08-07T21:42:46.144Z,4.80
2022-08-07T21:46:09.794Z,4.63
2022-08-07T21:48:28.022Z,5.32
2022-08-07T21:53:46.364Z,5.43
2022-08-07T21:56:39.747Z,5.15
2022-08-07T21:59:17.460Z,12.02
2022-08-07T22:02:10.248Z,10.88
2022-08-07T22:04:53.553Z,5.50
2022-08-07T22:07:31.476Z,4.93
2022-08-07T22:10:05.717Z,5.40
2022-08-07T22:12:41.516Z,4.88
2022-08-07T22:16:43.661Z,5.22
2022-08-07T22:18:25.623Z,10.43
2022-08-07T22:21:01.760Z,7.22
2022-08-07T22:23:51.960Z,7.05
2022-08-07T22:26:34.626Z,6.38
2022-08-07T22:29:15.817Z,6.47
2022-08-07T22:32:06.157Z,5.72
2022-08-07T22:34:57.927Z,5.97
2022-08-07T22:38:03.921Z,5.53
2022-08-07T22:40:33.049Z,5.10
2022-08-07T22:43:09.362Z,5.80
2022-08-07T22:46:40.854Z,5.60
2022-08-07T22:49:10.976Z,6.55
2022-08-07T22:51:53.927Z,7.53
2022-08-07T22:55:22.453Z,6.80
2022-08-07T22:57:59.180Z,7.40
2022-08-07T23:00:42.715Z,7.22
2022-08-07T23:03:58.361Z,7.78
2022-08-07T23:06:43.249Z,7.97
2022-08-07T23:10:06.455Z,8.00
2022-08-07T23:12:35.049Z,8.63
2022-08-07T23:16:06.005Z,7.93
2022-08-07T23:18:35.367Z,6.93
2022-08-07T23:21:30.079Z,6.93
2022-08-07T23:24:45.452Z,6.55
2022-08-07T23:28:21.129Z,6.22
2022-08-07T23:31:11.521Z,6.88
2022-08-07T23:34:36.719Z,6.70
2022-08-07T23:37:18.626Z,6.70
2022-08-07T23:39:55.905Z,7.28
2022-08-07T23:42:59.847Z,8.00
2022-08-07T23:46:02.745Z,7.80
2022-08-07T23:49:15.804Z,7.20
2022-08-07T23:53:17.606Z,6.57
2022-08-07T23:54:46.232Z,6.55
2022-08-07T23:57:22.367Z,6.57
